createdAt,value
2019-02-05T00:00:44.811Z,6.00
2019-02-05T00:03:14.935Z,5.42
2019-02-05T00:05:42.975Z,5.72
2019-02-05T00:08:11.041Z,5.60
2019-02-05T00:10:39.125Z,5.70
2019-02-05T00:13:07.201Z,5.50
2019-02-05T00:15:36.255Z,5.97
2019-02-05T00:18:04.938Z,5.80
2019-02-05T00:20:33.213Z,5.62
2019-02-05T00:23:01.228Z,5.70
2019-02-05T00:25:29.516Z,5.30
2019-02-05T00:27:58.320Z,5.40
2019-02-05T00:30:26.704Z,5.30
2019-02-05T00:32:55.081Z,5.60
2019-02-05T00:35:23.156Z,5.50
2019-02-05T00:37:51.239Z,5.53
2019-02-05T00:40:19.599Z,5.90
2019-02-05T00:42:48.189Z,5.60
2019-02-05T00:45:16.525Z,5.62
2019-02-05T00:47:44.952Z,5.50
2019-02-05T00:50:13.548Z,5.50
2019-02-05T00:52:41.962Z,5.90
2019-02-05T00:55:11.904Z,6.00
2019-02-05T00:57:40.414Z,6.30
2019-02-05T01:00:11.864Z,6.17
2019-02-05T01:02:40.325Z,6.10
2019-02-05T01:05:08.833Z,6.12
2019-02-05T01:07:37.303Z,6.10
2019-02-05T01:10:06.299Z,6.65
2019-02-05T01:12:34.639Z,6.50
2019-02-05T01:15:03.340Z,6.30
2019-02-05T01:17:31.693Z,6.10
2019-02-05T01:19:59.752Z,6.53
2019-02-05T01:22:27.917Z,6.70
2019-02-05T01:24:56.934Z,6.90
2019-02-05T01:27:25.671Z,6.50
2019-02-05T01:29:53.660Z,7.10
2019-02-05T01:32:22.006Z,7.50
2019-02-05T01:34:50.167Z,8.50
2019-02-05T01:37:18.618Z,8.50
2019-02-05T01:39:47.720Z,8.50
2019-02-05T01:42:16.147Z,8.65
2019-02-05T01:44:44.515Z,8.80
2019-02-05T01:47:12.683Z,8.70
2019-02-05T01:49:40.728Z,9.33
2019-02-05T01:52:08.892Z,9.15
2019-02-05T01:54:36.958Z,8.90
2019-02-05T01:57:05.711Z,9.80
2019-02-05T01:59:33.874Z,9.90
2019-02-05T02:02:01.903Z,10.15
2019-02-05T02:04:31.051Z,9.93
2019-02-05T02:06:59.336Z,9.50
2019-02-05T02:09:27.639Z,10.18
2019-02-05T02:11:55.669Z,9.93
2019-02-05T02:14:23.697Z,10.13
2019-02-05T02:16:51.911Z,9.90
2019-02-05T02:19:20.309Z,10.20
2019-02-05T02:21:48.988Z,9.50
2019-02-05T02:24:17.115Z,10.03
2019-02-05T02:26:52.039Z,10.28
2019-02-05T02:29:15.306Z,10.30
2019-02-05T02:31:43.677Z,10.72
2019-02-05T02:34:12.098Z,10.40
2019-02-05T02:36:40.462Z,10.68
2019-02-05T02:39:08.877Z,10.95
2019-02-05T02:41:37.335Z,11.15
2019-02-05T02:44:05.365Z,11.80
2019-02-05T02:46:33.463Z,11.75
2019-02-05T02:49:02.288Z,11.40
2019-02-05T02:51:30.318Z,11.93
2019-02-05T02:53:58.747Z,11.73
2019-02-05T02:56:26.795Z,13.00
2019-02-05T02:58:55.197Z,12.10
2019-02-05T03:01:23.231Z,12.20
2019-02-05T03:03:51.641Z,12.18
2019-02-05T03:06:20.024Z,12.73
2019-02-05T03:08:48.120Z,12.90
2019-02-05T03:11:16.427Z,12.30
2019-02-05T03:13:44.504Z,11.95
2019-02-05T03:16:12.829Z,11.70
2019-02-05T03:18:40.878Z,12.00
2019-02-05T03:21:09.623Z,11.73
2019-02-05T03:23:37.665Z,12.25
2019-02-05T03:26:05.707Z,12.13
2019-02-05T03:28:34.110Z,12.10
2019-02-05T03:31:02.436Z,12.70
2019-02-05T03:33:30.513Z,12.25
2019-02-05T03:35:58.902Z,12.58
2019-02-05T03:38:26.975Z,13.10
2019-02-05T03:41:02.063Z,12.77
2019-02-05T03:43:30.427Z,12.15
2019-02-05T03:46:00.039Z,12.60
2019-02-05T03:48:28.448Z,12.93
2019-02-05T03:51:00.295Z,12.73
2019-02-05T03:53:30.660Z,12.73
2019-02-05T03:56:06.539Z,13.45
2019-02-05T03:58:43.219Z,13.30
2019-02-05T04:01:19.328Z,14.20
2019-02-05T04:04:12.513Z,13.53
2019-02-05T04:07:00.028Z,13.93
2019-02-05T04:09:56.090Z,13.90
2019-02-05T04:12:42.591Z,14.30
2019-02-05T04:15:21.443Z,14.33
2019-02-05T04:18:18.180Z,14.50
2019-02-05T04:21:08.682Z,15.10
2019-02-05T04:24:02.227Z,15.30
2019-02-05T04:26:55.655Z,15.32
2019-02-05T04:29:52.004Z,15.28
2019-02-05T04:32:48.288Z,16.27
2019-02-05T04:35:36.335Z,16.17
2019-02-05T04:38:23.993Z,16.25
2019-02-05T04:41:21.413Z,16.60
2019-02-05T04:44:03.289Z,17.73
2019-02-05T04:46:53.796Z,16.27
2019-02-05T04:49:40.424Z,18.20
2019-02-05T04:52:27.546Z,18.23
2019-02-05T04:55:18.539Z,17.90
2019-02-05T04:58:14.783Z,18.00
2019-02-05T05:00:56.388Z,18.90
2019-02-05T05:03:28.234Z,18.60
2019-02-05T05:06:04.782Z,19.75
2019-02-05T05:08:58.055Z,19.35
2019-02-05T05:11:26.051Z,19.45
2019-02-05T05:13:54.417Z,19.37
2019-02-05T05:16:23.096Z,20.10
2019-02-05T05:18:51.789Z,20.02
2019-02-05T05:21:20.750Z,20.00
2019-02-05T05:23:48.837Z,19.90
2019-02-05T05:26:17.865Z,19.65
2019-02-05T05:28:45.857Z,20.32
2019-02-05T05:31:13.920Z,21.45
2019-02-05T05:33:42.386Z,19.92
2019-02-05T05:36:10.765Z,19.30
2019-02-05T05:38:39.087Z,20.25
2019-02-05T05:41:07.205Z,19.65
2019-02-05T05:43:36.175Z,19.70
2019-02-05T05:46:04.769Z,19.37
2019-02-05T05:48:32.787Z,20.95
2019-02-05T05:51:01.143Z,20.62
2019-02-05T05:53:29.225Z,20.35
2019-02-05T05:55:57.505Z,19.75
2019-02-05T05:58:25.550Z,21.10
2019-02-05T06:00:54.055Z,20.43
2019-02-05T06:03:22.136Z,20.55
2019-02-05T06:05:50.731Z,20.30
2019-02-05T06:08:18.775Z,20.32
2019-02-05T06:10:47.439Z,20.60
2019-02-05T06:13:15.826Z,20.97
2019-02-05T06:15:44.510Z,20.85
2019-02-05T06:18:12.891Z,21.02
2019-02-05T06:20:41.223Z,20.97
2019-02-05T06:23:09.261Z,21.48
2019-02-05T06:25:37.348Z,20.45
2019-02-05T06:28:05.994Z,21.85
2019-02-05T06:30:34.410Z,21.65
2019-02-05T06:33:03.470Z,20.45
2019-02-05T06:35:31.880Z,20.92
2019-02-05T06:38:00.353Z,20.62
2019-02-05T06:40:29.115Z,21.00
2019-02-05T06:42:57.172Z,20.65
2019-02-05T06:45:25.541Z,21.10
2019-02-05T06:47:54.472Z,20.77
2019-02-05T06:50:22.649Z,20.50
2019-02-05T06:52:51.111Z,21.82
2019-02-05T06:55:19.393Z,21.40
2019-02-05T06:57:47.444Z,21.65
2019-02-05T07:00:19.762Z,20.90
2019-02-05T07:02:48.552Z,20.62
2019-02-05T07:05:17.430Z,21.20
2019-02-05T07:07:45.874Z,21.30
2019-02-05T07:10:15.505Z,21.05
2019-02-05T07:12:43.944Z,20.10
2019-02-05T07:15:12.128Z,21.00
2019-02-05T07:17:49.231Z,21.50
2019-02-05T07:20:11.495Z,19.67
2019-02-05T07:22:40.282Z,21.02
2019-02-05T07:25:10.365Z,19.90
2019-02-05T07:27:38.414Z,19.15
2019-02-05T07:30:07.894Z,19.82
2019-02-05T07:32:36.037Z,19.05
2019-02-05T07:35:04.946Z,18.17
2019-02-05T07:37:33.624Z,19.50
2019-02-05T07:40:02.010Z,18.50
2019-02-05T07:42:30.316Z,18.15
2019-02-05T07:44:59.172Z,17.30
2019-02-05T07:47:27.629Z,17.80
2019-02-05T07:49:55.853Z,17.80
2019-02-05T07:52:23.904Z,18.87
2019-02-05T07:54:52.038Z,17.17
2019-02-05T07:57:20.778Z,17.60
2019-02-05T07:59:49.277Z,17.75
2019-02-05T08:02:17.374Z,16.97
2019-02-05T08:04:45.911Z,17.00
2019-02-05T08:07:14.032Z,16.77
2019-02-05T08:09:42.087Z,16.40
2019-02-05T08:12:10.530Z,17.50
2019-02-05T08:14:38.963Z,17.20
2019-02-05T08:17:07.108Z,16.50
2019-02-05T08:19:35.883Z,16.00
2019-02-05T08:22:04.283Z,16.42
2019-02-05T08:24:32.976Z,15.88
2019-02-05T08:27:01.424Z,15.75
2019-02-05T08:29:30.149Z,16.20
2019-02-05T08:31:58.866Z,15.75
2019-02-05T08:34:26.952Z,15.30
2019-02-05T08:36:55.804Z,15.50
2019-02-05T08:39:24.288Z,14.90
2019-02-05T08:41:53.610Z,15.40
2019-02-05T08:44:21.941Z,14.03
2019-02-05T08:46:50.612Z,15.23
2019-02-05T08:49:18.708Z,14.40
2019-02-05T08:51:47.115Z,14.30
2019-02-05T08:54:15.542Z,14.30
2019-02-05T08:56:44.227Z,14.30
2019-02-05T08:59:12.317Z,14.03
2019-02-05T09:01:40.785Z,14.40
2019-02-05T09:04:09.773Z,14.30
2019-02-05T09:06:38.225Z,14.50
2019-02-05T09:09:08.514Z,13.98
2019-02-05T09:11:36.956Z,14.53
2019-02-05T09:14:10.700Z,14.60
2019-02-05T09:16:35.452Z,13.60
2019-02-05T09:19:03.969Z,13.80
2019-02-05T09:21:32.051Z,15.05
2019-02-05T09:24:00.128Z,14.60
2019-02-05T09:26:28.186Z,16.23
2019-02-05T09:28:56.918Z,14.28
2019-02-05T09:31:25.258Z,15.30
2019-02-05T09:33:53.336Z,14.40
2019-02-05T09:36:22.237Z,16.17
2019-02-05T09:38:50.924Z,14.98
2019-02-05T09:41:20.288Z,15.08
2019-02-05T09:43:50.912Z,15.15
2019-02-05T09:46:19.385Z,14.85
2019-02-05T09:48:47.906Z,15.10
2019-02-05T09:51:16.293Z,15.78
2019-02-05T09:53:44.953Z,14.73
2019-02-05T09:56:13.578Z,14.75
2019-02-05T09:58:42.456Z,15.63
2019-02-05T10:01:10.831Z,16.27
2019-02-05T10:03:39.240Z,16.17
2019-02-05T10:06:07.310Z,15.95
2019-02-05T10:08:35.351Z,15.20
2019-02-05T10:11:04.002Z,15.27
2019-02-05T10:13:32.324Z,16.10
2019-02-05T10:16:00.762Z,16.27
2019-02-05T10:18:29.748Z,15.93
2019-02-05T10:20:58.173Z,16.55
2019-02-05T10:23:26.299Z,16.80
2019-02-05T10:25:54.368Z,17.45
2019-02-05T10:28:23.096Z,18.40
2019-02-05T10:30:51.481Z,17.32
2019-02-05T10:33:19.850Z,18.02
2019-02-05T10:35:48.571Z,17.57
2019-02-05T10:38:16.924Z,16.50
2019-02-05T10:40:45.013Z,18.17
2019-02-05T10:43:13.510Z,17.37
2019-02-05T10:45:42.024Z,17.05
2019-02-05T10:48:11.374Z,17.27
2019-02-05T10:50:39.666Z,16.82
2019-02-05T10:53:08.143Z,17.02
2019-02-05T10:55:36.621Z,16.90
2019-02-05T10:58:05.880Z,17.45
2019-02-05T11:00:34.097Z,17.27
2019-02-05T11:03:02.809Z,16.63
2019-02-05T11:05:32.238Z,17.20
2019-02-05T11:08:00.366Z,17.00
2019-02-05T11:10:29.288Z,16.25
2019-02-05T11:12:57.449Z,17.60
2019-02-05T11:15:26.805Z,17.45
2019-02-05T11:17:55.152Z,17.45
2019-02-05T11:20:23.849Z,17.50
2019-02-05T11:22:52.530Z,17.10
2019-02-05T11:25:21.503Z,17.98
2019-02-05T11:27:50.213Z,17.60
2019-02-05T11:30:28.660Z,17.77
2019-02-05T11:32:56.761Z,18.42
2019-02-05T11:35:25.081Z,18.10
2019-02-05T11:37:53.516Z,17.65
2019-02-05T11:40:26.339Z,17.85
2019-02-05T11:42:54.340Z,18.90
2019-02-05T11:45:22.525Z,18.57
2019-02-05T11:47:51.099Z,18.45
2019-02-05T11:50:19.525Z,19.40
2019-02-05T11:52:48.220Z,18.98
2019-02-05T11:55:17.164Z,17.83
2019-02-05T11:57:45.653Z,18.57
2019-02-05T12:00:17.392Z,18.40
2019-02-05T12:02:48.900Z,18.70
2019-02-05T12:05:15.967Z,17.92
2019-02-05T12:07:47.418Z,18.90
2019-02-05T12:10:15.843Z,20.72
2019-02-05T12:12:43.903Z,18.73
2019-02-05T12:15:12.395Z,18.42
2019-02-05T12:17:40.777Z,18.00
2019-02-05T12:20:10.271Z,18.12
2019-02-05T12:22:38.429Z,17.40
2019-02-05T12:25:07.938Z,18.15
2019-02-05T12:27:36.779Z,16.48
2019-02-05T12:30:07.426Z,16.50
2019-02-05T12:32:35.821Z,16.20
2019-02-05T12:35:04.614Z,16.57
2019-02-05T12:37:32.724Z,15.35
2019-02-05T12:40:01.472Z,15.88
2019-02-05T12:42:29.576Z,15.23
2019-02-05T12:44:58.441Z,15.50
2019-02-05T12:47:26.967Z,15.55
2019-02-05T12:49:55.399Z,14.85
2019-02-05T12:52:23.774Z,16.35
2019-02-05T12:54:52.159Z,14.80
2019-02-05T12:57:20.245Z,14.35
2019-02-05T12:59:48.330Z,15.40
2019-02-05T13:02:17.138Z,14.60
2019-02-05T13:04:46.391Z,15.28
2019-02-05T13:07:14.794Z,14.75
2019-02-05T13:09:42.890Z,14.30
2019-02-05T13:12:11.241Z,13.35
2019-02-05T13:14:39.334Z,13.97
2019-02-05T13:17:07.414Z,13.70
2019-02-05T13:19:35.809Z,12.93
2019-02-05T13:22:04.332Z,14.00
2019-02-05T13:24:32.701Z,14.40
2019-02-05T13:27:01.396Z,13.58
2019-02-05T13:29:29.843Z,13.72
2019-02-05T13:31:57.892Z,14.43
2019-02-05T13:34:26.131Z,13.80
2019-02-05T13:36:54.514Z,13.65
2019-02-05T13:39:22.943Z,13.98
2019-02-05T13:41:51.049Z,13.88
2019-02-05T13:44:19.537Z,13.93
2019-02-05T13:46:47.662Z,13.05
2019-02-05T13:49:16.034Z,13.78
2019-02-05T13:51:44.174Z,13.60
2019-02-05T13:54:12.260Z,12.97
2019-02-05T13:56:40.445Z,13.90
2019-02-05T13:59:08.889Z,14.28
2019-02-05T14:01:37.012Z,14.58
2019-02-05T14:04:05.676Z,13.38
2019-02-05T14:06:34.754Z,13.08
2019-02-05T14:09:10.408Z,13.30
2019-02-05T14:11:33.450Z,13.05
2019-02-05T14:14:01.560Z,13.60
2019-02-05T14:16:29.714Z,13.20
2019-02-05T14:18:58.121Z,13.50
2019-02-05T14:21:26.592Z,14.50
2019-02-05T14:23:54.712Z,13.90
2019-02-05T14:26:23.198Z,13.93
2019-02-05T14:28:51.558Z,13.37
2019-02-05T14:31:30.751Z,13.88
2019-02-05T14:33:49.689Z,13.93
2019-02-05T14:36:18.169Z,13.90
2019-02-05T14:38:47.375Z,14.90
2019-02-05T14:41:15.914Z,14.80
2019-02-05T14:43:44.042Z,14.85
2019-02-05T14:46:13.354Z,15.53
2019-02-05T14:48:42.118Z,14.50
2019-02-05T14:51:10.521Z,16.57
2019-02-05T14:53:38.600Z,15.72
2019-02-05T14:56:06.685Z,15.25
2019-02-05T14:58:35.048Z,15.48
2019-02-05T15:01:03.497Z,15.90
2019-02-05T15:03:31.674Z,15.45
2019-02-05T15:06:00.648Z,15.23
2019-02-05T15:08:28.741Z,16.25
2019-02-05T15:10:57.550Z,15.75
2019-02-05T15:13:25.601Z,15.60
2019-02-05T15:15:54.078Z,15.45
2019-02-05T15:18:23.066Z,16.07
2019-02-05T15:20:51.448Z,16.17
2019-02-05T15:23:20.753Z,16.55
2019-02-05T15:25:49.151Z,16.27
2019-02-05T15:28:17.207Z,16.25
2019-02-05T15:30:45.891Z,16.90
2019-02-05T15:33:39.966Z,17.48
2019-02-05T15:36:22.972Z,16.23
2019-02-05T15:38:51.063Z,16.57
2019-02-05T15:41:19.517Z,17.20
2019-02-05T15:43:47.629Z,18.00
2019-02-05T15:46:15.708Z,18.05
2019-02-05T15:48:43.850Z,18.62
2019-02-05T15:51:12.754Z,17.98
2019-02-05T15:53:41.179Z,17.30
2019-02-05T15:56:09.389Z,17.15
2019-02-05T15:58:37.518Z,18.05
2019-02-05T16:01:06.007Z,17.80
2019-02-05T16:03:34.454Z,16.70
2019-02-05T16:06:02.729Z,17.17
2019-02-05T16:08:31.139Z,20.00
2019-02-05T16:10:59.575Z,17.52
2019-02-05T16:13:27.694Z,17.57
2019-02-05T16:15:55.832Z,17.73
2019-02-05T16:18:23.917Z,17.98
2019-02-05T16:20:52.268Z,17.13
2019-02-05T16:23:20.659Z,17.12
2019-02-05T16:25:49.328Z,17.48
2019-02-05T16:28:17.394Z,16.70
2019-02-05T16:30:45.804Z,17.32
2019-02-05T16:33:14.495Z,17.20
2019-02-05T16:35:42.571Z,17.48
2019-02-05T16:38:10.949Z,18.17
2019-02-05T16:40:39.016Z,17.37
2019-02-05T16:43:07.150Z,18.25
2019-02-05T16:45:35.323Z,18.48
2019-02-05T16:48:03.581Z,18.35
2019-02-05T16:50:32.672Z,18.12
2019-02-05T16:53:00.930Z,17.62
2019-02-05T16:55:29.404Z,18.52
2019-02-05T16:57:57.841Z,18.57
2019-02-05T17:00:28.122Z,18.83
2019-02-05T17:02:56.236Z,18.52
2019-02-05T17:05:24.783Z,20.30
2019-02-05T17:07:52.944Z,19.00
2019-02-05T17:10:21.548Z,19.85
2019-02-05T17:12:50.405Z,19.40
2019-02-05T17:15:18.982Z,19.17
2019-02-05T17:17:47.786Z,19.27
2019-02-05T17:20:17.955Z,19.10
2019-02-05T17:22:46.377Z,20.00
2019-02-05T17:25:15.221Z,19.30
2019-02-05T17:27:44.099Z,18.55
2019-02-05T17:30:14.123Z,19.98
2019-02-05T17:32:42.555Z,18.95
2019-02-05T17:35:11.048Z,19.77
2019-02-05T17:37:39.721Z,19.27
2019-02-05T17:40:09.278Z,21.57
2019-02-05T17:42:38.015Z,21.65
2019-02-05T17:45:07.538Z,20.25
2019-02-05T17:47:36.002Z,20.57
2019-02-05T17:50:05.269Z,20.12
2019-02-05T17:52:33.377Z,21.10
2019-02-05T17:55:02.220Z,19.23
2019-02-05T17:57:30.260Z,19.20
2019-02-05T17:59:58.663Z,21.07
2019-02-05T18:02:26.993Z,20.80
2019-02-05T18:04:55.625Z,20.27
2019-02-05T18:07:23.987Z,21.07
2019-02-05T18:09:52.056Z,20.95
2019-02-05T18:12:20.178Z,21.95
2019-02-05T18:14:48.940Z,21.40
2019-02-05T18:17:17.057Z,20.40
2019-02-05T18:19:45.109Z,20.55
2019-02-05T18:22:13.518Z,21.40
2019-02-05T18:24:41.889Z,21.82
2019-02-05T18:27:10.249Z,21.95
2019-02-05T18:29:38.413Z,21.63
2019-02-05T18:32:07.383Z,21.40
2019-02-05T18:34:35.513Z,21.33
2019-02-05T18:37:03.702Z,21.45
2019-02-05T18:39:31.817Z,21.60
2019-02-05T18:42:00.253Z,21.68
2019-02-05T18:44:28.660Z,22.10
2019-02-05T18:46:57.532Z,21.42
2019-02-05T18:49:25.630Z,23.22
2019-02-05T18:51:54.041Z,23.40
2019-02-05T18:54:22.417Z,23.20
2019-02-05T18:56:51.242Z,23.00
2019-02-05T18:59:20.229Z,23.10
2019-02-05T19:01:48.349Z,22.90
2019-02-05T19:04:16.852Z,23.35
2019-02-05T19:06:45.685Z,23.60
2019-02-05T19:09:14.264Z,22.55
2019-02-05T19:11:42.740Z,24.05
2019-02-05T19:14:11.230Z,23.15
2019-02-05T19:16:40.035Z,24.23
2019-02-05T19:19:15.134Z,24.82
2019-02-05T19:21:38.154Z,23.65
2019-02-05T19:24:16.209Z,24.10
2019-02-05T19:26:52.633Z,24.30
2019-02-05T19:29:21.074Z,24.30
2019-02-05T19:31:49.589Z,24.37
2019-02-05T19:34:17.823Z,24.47
2019-02-05T19:36:45.923Z,23.87
2019-02-05T19:39:14.296Z,24.35
2019-02-05T19:41:42.708Z,24.50
2019-02-05T19:44:11.802Z,26.90
2019-02-05T19:47:01.382Z,26.60
2019-02-05T19:49:36.086Z,25.35
2019-02-05T19:52:05.046Z,24.25
2019-02-05T19:54:33.893Z,25.75
2019-02-05T19:57:01.977Z,25.62
2019-02-05T19:59:30.055Z,26.60
2019-02-05T20:01:58.538Z,26.48
2019-02-05T20:04:27.284Z,26.50
2019-02-05T20:06:55.729Z,25.48
2019-02-05T20:09:23.811Z,25.72
2019-02-05T20:11:52.328Z,25.97
2019-02-05T20:14:21.073Z,27.00
2019-02-05T20:16:49.186Z,25.85
2019-02-05T20:19:17.289Z,27.17
2019-02-05T20:21:45.384Z,33.55
2019-02-05T20:24:13.797Z,38.17
2019-02-05T20:26:41.885Z,26.35
2019-02-05T20:29:10.323Z,25.20
2019-02-05T20:31:38.357Z,25.73
2019-02-05T20:34:06.453Z,25.92
2019-02-05T20:36:35.186Z,24.95
2019-02-05T20:39:07.169Z,25.80
2019-02-05T20:41:35.621Z,26.57
2019-02-05T20:44:04.080Z,26.25
2019-02-05T20:46:32.134Z,26.13
2019-02-05T20:49:00.563Z,26.20
2019-02-05T20:51:28.642Z,26.10
2019-02-05T20:53:56.725Z,26.05
2019-02-05T20:56:25.797Z,26.63
2019-02-05T20:58:54.193Z,27.77
2019-02-05T21:01:22.645Z,25.08
2019-02-05T21:04:00.756Z,31.65
2019-02-05T21:06:21.441Z,30.10
2019-02-05T21:08:49.545Z,27.02
2019-02-05T21:11:18.329Z,27.50
2019-02-05T21:13:46.701Z,25.97
2019-02-05T21:16:15.172Z,27.10
2019-02-05T21:18:43.290Z,26.77
2019-02-05T21:21:11.588Z,29.15
2019-02-05T21:23:40.101Z,27.90
2019-02-05T21:26:08.584Z,28.12
2019-02-05T21:28:36.952Z,27.00
2019-02-05T21:31:05.324Z,26.40
2019-02-05T21:33:33.732Z,26.52
2019-02-05T21:36:01.887Z,26.30
2019-02-05T21:38:30.650Z,27.17
2019-02-05T21:40:59.673Z,25.85
2019-02-05T21:43:27.930Z,25.50
2019-02-05T21:45:56.019Z,25.20
2019-02-05T21:48:24.965Z,26.40
2019-02-05T21:50:53.646Z,24.95
2019-02-05T21:53:22.354Z,25.48
2019-02-05T21:55:50.492Z,24.25
2019-02-05T21:58:18.648Z,23.73
2019-02-05T22:00:46.952Z,24.65
2019-02-05T22:03:15.052Z,24.72
2019-02-05T22:05:43.847Z,25.40
2019-02-05T22:08:11.989Z,24.23
2019-02-05T22:10:40.175Z,23.73
2019-02-05T22:13:09.878Z,23.83
2019-02-05T22:15:38.475Z,24.12
2019-02-05T22:18:06.624Z,23.55
2019-02-05T22:20:34.709Z,24.80
2019-02-05T22:23:02.814Z,23.87
2019-02-05T22:25:30.860Z,23.45
2019-02-05T22:27:59.065Z,24.65
2019-02-05T22:30:28.737Z,23.57
2019-02-05T22:32:56.874Z,23.62
2019-02-05T22:35:25.310Z,23.45
2019-02-05T22:37:54.041Z,24.30
2019-02-05T22:40:23.093Z,23.22
2019-02-05T22:42:51.788Z,24.32
2019-02-05T22:45:20.344Z,24.60
2019-02-05T22:47:48.766Z,24.17
2019-02-05T22:50:18.090Z,24.40
2019-02-05T22:52:46.412Z,24.00
2019-02-05T22:55:15.577Z,23.35
2019-02-05T22:57:44.072Z,23.92
2019-02-05T23:00:26.156Z,24.07
2019-02-05T23:02:54.270Z,23.55
2019-02-05T23:05:36.660Z,23.57
2019-02-05T23:08:05.773Z,23.30
2019-02-05T23:10:39.751Z,23.35
2019-02-05T23:13:09.466Z,24.70
2019-02-05T23:15:38.823Z,24.92
2019-02-05T23:18:07.033Z,24.30
2019-02-05T23:20:35.023Z,23.70
2019-02-05T23:23:03.500Z,25.30
2019-02-05T23:25:31.934Z,24.50
2019-02-05T23:28:00.051Z,24.32
2019-02-05T23:30:29.621Z,25.20
2019-02-05T23:32:58.249Z,25.65
2019-02-05T23:35:26.640Z,26.42
2019-02-05T23:37:54.704Z,25.27
2019-02-05T23:40:23.439Z,26.35
2019-02-05T23:42:51.886Z,26.05
2019-02-05T23:45:20.711Z,25.52
2019-02-05T23:47:48.892Z,26.00
2019-02-05T23:50:17.781Z,26.68
2019-02-05T23:52:46.384Z,26.00
2019-02-05T23:55:15.270Z,26.27
2019-02-05T23:57:44.228Z,28.50
